Time;durP1;ratioP1;P1;durP2;ratioP2;P2;SDS_P1;SDS_P2;PMS_P1;PMS_P2;Temp;Humidity;BMP_temperature;BMP_pressure;BME280_temperature;BME280_humidity;BME280_pressure;Samples;Min_cycle;Max_cycle;Signal;HPM_P1;HPM_P2
2023/05/11 00:00:24;;;;;;;;;2.33;2.33;;;;;15.76;58.05;100831.66;4955899;28;48888;-59
2023/05/11 00:02:50;;;;;;;;;4.00;3.67;;;;;15.75;58.16;100830.81;4956152;28;45491;-59
2023/05/11 00:05:15;;;;;;;;;3.00;3.00;;;;;15.75;57.65;100828.16;4955978;28;45853;-59
2023/05/11 00:07:40;;;;;;;;;3.00;3.00;;;;;15.79;58.38;100828.84;4955952;28;45392;-59
2023/05/11 00:10:06;;;;;;;;;4.00;3.00;;;;;15.78;57.15;100829.81;4956116;28;45395;-59
2023/05/11 00:12:32;;;;;;;;;2.67;2.67;;;;;15.74;57.43;100817.63;4956007;28;45311;-59
2023/05/11 00:14:57;;;;;;;;;4.00;3.00;;;;;15.70;57.62;100816.09;4955839;28;45389;-59
2023/05/11 00:17:22;;;;;;;;;2.00;2.00;;;;;15.70;58.50;100824.03;4956017;28;45388;-59
2023/05/11 00:19:48;;;;;;;;;4.00;4.00;;;;;15.68;57.42;100822.31;4955586;28;50194;-59
2023/05/11 00:22:13;;;;;;;;;3.00;3.00;;;;;15.69;58.56;100828.50;4956068;28;45370;-59
2023/05/11 00:24:38;;;;;;;;;2.00;2.00;;;;;15.70;58.56;100822.25;4970549;28;46605;-59
2023/05/11 00:27:04;;;;;;;;;3.00;3.00;;;;;15.68;57.89;100818.78;4955903;28;45451;-59
2023/05/11 00:29:30;;;;;;;;;4.00;4.00;;;;;15.70;57.94;100813.44;4955842;28;45411;-59
2023/05/11 00:31:55;;;;;;;;;3.33;3.33;;;;;15.71;58.25;100812.50;4955726;28;45740;-59
2023/05/11 00:34:20;;;;;;;;;3.33;3.33;;;;;15.67;57.77;100809.13;4955334;28;59790;-59
2023/05/11 00:36:46;;;;;;;;;0.00;0.00;;;;;15.73;57.60;100813.28;4955645;28;45470;-59
2023/05/11 00:39:12;;;;;;;;;4.00;4.00;;;;;15.75;57.63;100814.06;4955866;28;45470;-59
2023/05/11 00:41:38;;;;;;;;;6.00;3.67;;;;;15.76;57.98;100816.59;4955766;28;45683;-59
2023/05/11 00:44:03;;;;;;;;;4.67;3.67;;;;;15.75;57.82;100811.41;4957579;28;46133;-59
2023/05/11 00:46:29;;;;;;;;;4.33;4.33;;;;;15.75;58.02;100806.09;4958768;28;45454;-59
2023/05/11 00:48:55;;;;;;;;;6.00;4.67;;;;;15.74;57.36;100809.66;4958983;28;45438;-59
2023/05/11 00:51:21;;;;;;;;;5.00;4.00;;;;;15.71;58.33;100807.19;4959640;28;45420;-59
2023/05/11 00:53:47;;;;;;;;;4.00;4.00;;;;;15.73;57.94;100818.56;4958615;28;45960;-59
2023/05/11 00:56:12;;;;;;;;;3.00;2.67;;;;;15.69;57.92;100809.94;4957391;28;45426;-59
2023/05/11 00:58:38;;;;;;;;;4.00;2.33;;;;;15.71;57.94;100807.19;4958379;28;51329;-59
2023/05/11 01:01:03;;;;;;;;;2.33;2.33;;;;;15.72;58.66;100809.78;4958451;28;45665;-59
2023/05/11 01:03:30;;;;;;;;;1.33;1.33;;;;;15.73;58.01;100808.81;4958652;28;45375;-59
2023/05/11 01:06:08;;;;;;;;;2.33;2.33;;;;;15.71;58.14;100805.38;4953199;28;45486;-59
2023/05/11 01:09:04;;;;;;;;;3.67;3.67;;;;;15.71;57.87;100809.84;4957619;28;45609;-59
2023/05/11 01:11:41;;;;;;;;;3.00;2.00;;;;;15.68;58.46;100811.72;4958521;28;45466;-59
2023/05/11 01:14:15;;;;;;;;;1.67;1.67;;;;;15.62;58.47;100796.09;4958412;28;45482;-59
2023/05/11 01:16:45;;;;;;;;;2.00;2.00;;;;;15.68;58.88;100802.88;4958739;28;45423;-59
2023/05/11 01:19:31;;;;;;;;;0.33;0.33;;;;;15.62;58.75;100806.72;4958647;28;45481;-59
2023/05/11 01:21:58;;;;;;;;;4.33;4.33;;;;;15.66;57.52;100807.38;4957158;28;45631;-59
2023/05/11 01:25:03;;;;;;;;;5.33;4.00;;;;;15.59;58.95;100798.91;4958221;28;46323;-59
2023/05/11 01:27:50;;;;;;;;;4.00;3.33;;;;;15.61;58.43;100812.09;4947049;28;45391;-59
2023/05/11 01:30:30;;;;;;;;;3.00;1.00;;;;;15.55;59.03;100810.59;4958214;28;45442;-59
2023/05/11 01:33:01;;;;;;;;;2.67;2.67;;;;;15.53;59.09;100804.56;4958526;28;45649;-59
2023/05/11 01:35:31;;;;;;;;;2.00;2.00;;;;;15.48;58.67;100809.25;4957989;28;45368;-59
2023/05/11 01:37:58;;;;;;;;;3.33;2.00;;;;;15.48;59.25;100803.09;4958276;28;45446;-59
2023/05/11 01:40:28;;;;;;;;;4.00;2.00;;;;;15.49;59.23;100800.34;4958136;28;45475;-59
2023/05/11 01:43:15;;;;;;;;;3.00;3.00;;;;;15.49;58.73;100810.94;4958208;28;45443;-59
2023/05/11 01:45:45;;;;;;;;;1.00;1.00;;;;;15.46;59.04;100809.31;4957699;28;45511;-59
2023/05/11 01:48:16;;;;;;;;;3.00;2.00;;;;;15.43;59.53;100806.81;4957871;28;45446;-59
2023/05/11 01:50:43;;;;;;;;;3.33;2.00;;;;;15.43;59.22;100809.47;4958590;28;45455;-59
2023/05/11 01:53:11;;;;;;;;;2.00;2.00;;;;;15.42;59.61;100807.78;4957409;28;45404;-59
2023/05/11 01:55:39;;;;;;;;;2.00;1.00;;;;;15.44;59.54;100810.31;4957166;28;46196;-59
2023/05/11 01:58:07;;;;;;;;;4.67;1.67;;;;;15.42;59.77;100814.84;4957899;28;45444;-59
2023/05/11 02:00:33;;;;;;;;;2.00;2.00;;;;;15.44;59.77;100818.28;4957705;28;45365;-58
2023/05/11 02:03:03;;;;;;;;;3.67;3.00;;;;;15.41;59.26;100821.94;4958179;28;45423;-59
2023/05/11 02:05:32;;;;;;;;;1.33;1.33;;;;;15.39;59.81;100818.53;4957906;28;45493;-59
2023/05/11 02:08:00;;;;;;;;;3.00;2.00;;;;;15.39;59.30;100820.31;4957742;28;45498;-59
2023/05/11 02:10:27;;;;;;;;;3.67;3.00;;;;;15.39;59.45;100815.88;4957683;28;45328;-59
2023/05/11 02:12:54;;;;;;;;;0.67;0.67;;;;;15.40;60.37;100825.53;4957639;28;45372;-59
2023/05/11 02:15:25;;;;;;;;;1.00;1.00;;;;;15.39;59.67;100829.13;4957558;28;45403;-59
2023/05/11 02:17:52;;;;;;;;;1.67;1.67;;;;;15.38;60.15;100827.41;4957580;28;45535;-59
2023/05/11 02:20:18;;;;;;;;;3.33;2.00;;;;;15.36;59.89;100820.47;4957975;28;45423;-59
2023/05/11 02:22:44;;;;;;;;;5.00;3.67;;;;;15.34;59.54;100823.22;4957771;28;45502;-59
2023/05/11 02:25:11;;;;;;;;;4.67;3.33;;;;;15.37;60.30;100825.69;4957257;28;46334;-59
2023/05/11 02:27:37;;;;;;;;;1.67;1.67;;;;;15.36;59.94;100821.31;4957448;28;45461;-59
2023/05/11 02:30:04;;;;;;;;;2.67;2.67;;;;;15.34;60.25;100832.94;4957469;28;45445;-59
2023/05/11 02:32:33;;;;;;;;;2.00;2.00;;;;;15.29;60.96;100821.75;4956204;28;45636;-59
2023/05/11 02:35:10;;;;;;;;;3.00;1.67;;;;;15.24;61.53;100830.75;4957083;28;46309;-59
2023/05/11 02:37:40;;;;;;;;;2.33;2.33;;;;;15.24;61.18;100830.75;4957361;28;45474;-59
2023/05/11 02:40:15;;;;;;;;;2.33;2.33;;;;;15.13;62.12;100830.47;4957297;28;45511;-59
2023/05/11 02:42:42;;;;;;;;;3.00;3.00;;;;;15.13;62.60;100827.81;4957317;28;45547;-59
2023/05/11 02:45:10;;;;;;;;;2.33;2.33;;;;;15.10;61.97;100835.91;4957137;28;46420;-59
2023/05/11 02:47:41;;;;;;;;;2.00;1.00;;;;;15.06;62.38;100822.91;4957232;28;45771;-59
2023/05/11 02:50:08;;;;;;;;;1.33;1.33;;;;;15.05;62.86;100818.53;4957027;28;45413;-58
2023/05/11 02:52:39;;;;;;;;;2.00;2.00;;;;;15.06;62.71;100814.94;4958014;28;45324;-59
2023/05/11 02:55:05;;;;;;;;;2.33;2.33;;;;;15.07;62.58;100814.88;4956736;28;45350;-59
2023/05/11 02:57:31;;;;;;;;;3.67;3.00;;;;;15.13;61.69;100819.88;4956901;28;45334;-59
2023/05/11 02:59:57;;;;;;;;;1.67;1.67;;;;;15.10;62.20;100813.84;4957206;28;45406;-59
2023/05/11 03:02:22;;;;;;;;;3.00;2.00;;;;;15.07;62.79;100817.53;4956608;28;45319;-59
2023/05/11 03:04:47;;;;;;;;;2.00;2.00;;;;;15.06;62.27;100825.53;4956214;28;46146;-59
2023/05/11 03:07:13;;;;;;;;;3.67;3.00;;;;;15.05;61.59;100824.69;4956901;28;45427;-58
2023/05/11 03:09:38;;;;;;;;;2.00;2.00;;;;;15.05;61.96;100816.75;4956891;28;45475;-59
2023/05/11 03:12:05;;;;;;;;;2.00;2.00;;;;;15.08;61.66;100813.09;4956736;28;45479;-60
2023/05/11 03:14:33;;;;;;;;;3.00;3.00;;;;;15.07;61.81;100809.59;4956645;28;45510;-58
2023/05/11 03:17:00;;;;;;;;;1.00;1.00;;;;;15.02;62.18;100816.91;4956767;28;45525;-59
2023/05/11 03:19:27;;;;;;;;;1.00;1.00;;;;;14.95;62.16;100818.13;4956496;28;46367;-60
2023/05/11 03:21:53;;;;;;;;;1.00;1.00;;;;;14.90;61.73;100817.50;4956848;28;45475;-59
2023/05/11 03:24:19;;;;;;;;;0.67;0.67;;;;;14.90;62.17;100817.50;4956637;28;45482;-59
2023/05/11 03:26:46;;;;;;;;;0.00;0.00;;;;;14.87;61.90;100825.59;4956514;28;45474;-59
2023/05/11 03:29:12;;;;;;;;;1.33;1.33;;;;;14.80;61.59;100810.03;4956711;28;45383;-59
2023/05/11 03:31:38;;;;;;;;;2.00;1.00;;;;;14.82;62.50;100819.69;4956615;28;45637;-58
2023/05/11 03:34:03;;;;;;;;;1.00;1.00;;;;;14.75;62.56;100806.75;4956303;28;45490;-59
2023/05/11 03:36:31;;;;;;;;;1.33;1.33;;;;;14.80;62.52;100804.75;4956311;28;45375;-59
2023/05/11 03:38:57;;;;;;;;;2.00;2.00;;;;;14.86;61.99;100815.97;4956623;28;45455;-58
2023/05/11 03:41:25;;;;;;;;;2.00;2.00;;;;;14.85;61.72;100808.94;4956695;28;45633;-59
2023/05/11 03:43:52;;;;;;;;;1.00;1.00;;;;;14.86;61.85;100816.81;4956252;28;45399;-58
2023/05/11 03:46:20;;;;;;;;;1.33;1.33;;;;;14.85;62.25;100800.97;4956320;28;45479;-58
2023/05/11 03:48:46;;;;;;;;;2.00;2.00;;;;;14.85;61.59;100806.28;4956302;28;45471;-59
2023/05/11 03:51:12;;;;;;;;;2.67;1.00;;;;;14.86;61.56;100808.88;4956957;28;45549;-59
2023/05/11 03:53:38;;;;;;;;;1.00;1.00;;;;;14.86;61.34;100800.06;4956040;28;45407;-59
2023/05/11 03:56:06;;;;;;;;;1.00;1.00;;;;;14.87;61.44;100813.22;4956023;28;45424;-59
2023/05/11 03:58:31;;;;;;;;;3.00;3.00;;;;;14.86;61.53;100803.56;4971003;28;45468;-59
2023/05/11 04:00:57;;;;;;;;;3.67;3.00;;;;;14.87;61.82;100807.06;4955952;28;45578;-60
2023/05/11 04:03:22;;;;;;;;;1.00;1.00;;;;;14.86;61.12;100805.38;4955947;28;46239;-59
2023/05/11 04:05:48;;;;;;;;;2.00;2.00;;;;;14.85;61.29;100803.63;4955854;28;45583;-59
2023/05/11 04:08:13;;;;;;;;;1.00;1.00;;;;;14.86;61.46;100808.00;4955734;28;47983;-59
2023/05/11 04:10:38;;;;;;;;;2.00;2.00;;;;;14.87;62.06;100810.56;4955838;28;45415;-60
2023/05/11 04:13:04;;;;;;;;;2.00;2.00;;;;;14.84;61.75;100797.50;4956058;28;45480;-59
2023/05/11 04:15:29;;;;;;;;;2.67;2.67;;;;;14.88;61.14;100800.81;4955803;28;45448;-59
2023/05/11 04:17:55;;;;;;;;;2.67;2.67;;;;;14.77;61.88;100807.50;4957685;28;45683;-59
2023/05/11 04:20:20;;;;;;;;;1.33;1.33;;;;;14.75;62.00;100803.25;4959482;28;45585;-59
2023/05/11 04:22:45;;;;;;;;;2.00;2.00;;;;;14.75;62.01;100804.09;4959010;28;46328;-59
2023/05/11 04:25:12;;;;;;;;;3.00;3.00;;;;;14.76;61.43;100804.97;4959326;28;45485;-59
2023/05/11 04:27:38;;;;;;;;;2.00;2.00;;;;;14.80;61.73;100807.38;4959640;28;45520;-58
2023/05/11 04:30:04;;;;;;;;;2.33;2.33;;;;;14.77;61.41;100804.84;4958964;28;45355;-59
2023/05/11 04:32:29;;;;;;;;;2.00;2.00;;;;;14.73;62.12;100798.03;4959120;28;45430;-59
2023/05/11 04:34:55;;;;;;;;;3.33;3.33;;;;;14.78;61.71;100809.25;4959007;28;45407;-59
2023/05/11 04:37:20;;;;;;;;;3.00;3.00;;;;;14.75;61.41;100806.75;4958037;28;45494;-59
2023/05/11 04:39:45;;;;;;;;;5.00;3.00;;;;;14.72;61.72;100806.91;4958500;28;56891;-60
2023/05/11 04:42:10;;;;;;;;;2.33;2.33;;;;;14.71;62.24;100802.53;4959328;28;45482;-59
2023/05/11 04:44:36;;;;;;;;;2.67;2.67;;;;;14.74;62.20;100810.31;4958877;28;48341;-58
2023/05/11 04:47:01;;;;;;;;;2.67;2.67;;;;;14.73;62.18;100808.59;4959026;28;45449;-59
2023/05/11 04:49:26;;;;;;;;;3.67;3.67;;;;;14.77;61.89;100807.50;4958948;28;45485;-59
2023/05/11 04:51:52;;;;;;;;;4.67;4.67;;;;;14.84;61.58;100804.59;4958943;28;45400;-59
2023/05/11 04:54:17;;;;;;;;;5.00;3.33;;;;;14.86;61.48;100803.56;4958662;28;45456;-59
2023/05/11 04:56:42;;;;;;;;;5.00;5.00;;;;;14.87;61.66;100807.06;4958812;28;45453;-58
2023/05/11 04:59:08;;;;;;;;;5.67;5.00;;;;;14.86;61.66;100811.50;4958507;28;48977;-59
2023/05/11 05:01:33;;;;;;;;;5.00;5.00;;;;;14.84;61.43;100810.72;4958260;28;45473;-59
2023/05/11 05:03:58;;;;;;;;;5.00;5.00;;;;;14.85;60.65;100809.78;4958609;28;45472;-59
2023/05/11 05:06:24;;;;;;;;;4.67;4.33;;;;;14.87;61.83;100815.88;4958740;28;45432;-59
2023/05/11 05:08:49;;;;;;;;;7.00;6.00;;;;;14.89;60.62;100818.44;4958691;28;45557;-59
2023/05/11 05:11:15;;;;;;;;;6.33;6.33;;;;;14.90;60.75;100814.84;4958306;28;45939;-59
2023/05/11 05:13:40;;;;;;;;;3.67;3.67;;;;;14.90;60.34;100814.84;4958584;28;45470;-59
2023/05/11 05:16:05;;;;;;;;;5.33;5.33;;;;;14.90;60.30;100821.00;4958433;28;45489;-59
2023/05/11 05:18:31;;;;;;;;;6.00;5.67;;;;;14.91;61.28;100824.50;4958576;28;45391;-59
2023/05/11 05:20:56;;;;;;;;;6.67;5.00;;;;;14.92;61.08;100827.09;4958534;28;45383;-59
2023/05/11 05:23:21;;;;;;;;;6.00;6.00;;;;;14.94;61.08;100827.03;4956901;28;45399;-59
2023/05/11 05:25:47;;;;;;;;;5.00;5.00;;;;;14.95;61.03;100826.09;4958595;28;45427;-59
2023/05/11 05:28:12;;;;;;;;;4.67;4.67;;;;;14.93;60.65;100826.16;4956926;28;55821;-58
2023/05/11 05:30:37;;;;;;;;;5.33;5.33;;;;;14.94;60.36;100832.31;4955599;28;52848;-58
2023/05/11 05:33:03;;;;;;;;;3.33;3.33;;;;;14.96;60.84;100833.97;4957607;28;45474;-59
2023/05/11 05:35:28;;;;;;;;;5.00;3.67;;;;;14.97;61.87;100830.38;4952615;28;45852;-59
2023/05/11 05:37:53;;;;;;;;;4.00;4.00;;;;;14.97;61.46;100833.03;4951370;28;45799;-59
2023/05/11 05:40:18;;;;;;;;;5.00;5.00;;;;;15.00;60.96;100842.59;4956953;28;45482;-58
2023/05/11 05:42:44;;;;;;;;;7.00;5.00;;;;;15.01;60.85;100844.31;4958540;28;45443;-59
2023/05/11 05:45:11;;;;;;;;;7.67;4.67;;;;;15.01;61.28;100845.16;4958494;28;45317;-59
2023/05/11 05:47:36;;;;;;;;;4.00;3.00;;;;;15.04;61.79;100844.16;4951110;28;45587;-59
2023/05/11 05:50:02;;;;;;;;;5.33;5.00;;;;;15.00;61.71;100840.81;4947232;28;46353;-62
2023/05/11 05:52:27;;;;;;;;;7.00;7.00;;;;;15.06;60.84;100841.44;4954010;28;45495;-63
2023/05/11 05:54:52;;;;;;;;;6.33;6.00;;;;;15.07;61.18;100848.44;4957457;28;45446;-65
2023/05/11 05:57:18;;;;;;;;;8.67;7.00;;;;;14.98;60.63;100847.13;4957130;28;48714;-63
2023/05/11 05:59:43;;;;;;;;;8.00;8.00;;;;;14.95;61.41;100856.06;4956557;28;61501;-62
2023/05/11 06:02:08;;;;;;;;;8.33;6.00;;;;;14.95;60.97;100847.28;4957227;28;45574;-64
2023/05/11 06:04:34;;;;;;;;;10.67;8.00;;;;;14.95;60.90;100848.13;4957704;28;45502;-64
2023/05/11 06:06:59;;;;;;;;;7.67;7.67;;;;;14.93;61.83;100854.44;4954663;28;45477;-60
2023/05/11 06:09:25;;;;;;;;;7.00;6.00;;;;;14.89;61.57;100850.22;4955569;28;45980;-59
2023/05/11 06:11:52;;;;;;;;;6.00;6.00;;;;;14.90;61.27;100850.13;4957433;28;45505;-60
2023/05/11 06:14:18;;;;;;;;;3.00;3.00;;;;;14.89;61.54;100859.03;4957418;28;45387;-60
2023/05/11 06:16:43;;;;;;;;;7.33;5.67;;;;;14.91;61.63;100865.13;4955922;28;45437;-60
2023/05/11 06:19:08;;;;;;;;;8.33;7.33;;;;;14.93;61.60;100865.03;4955630;28;46419;-60
2023/05/11 06:21:34;;;;;;;;;6.67;6.67;;;;;14.93;61.57;100854.44;4956906;28;48356;-60
2023/05/11 06:23:59;;;;;;;;;6.33;5.33;;;;;14.96;61.53;100864.88;4956218;28;45364;-72
2023/05/11 06:26:25;;;;;;;;;5.67;5.67;;;;;14.98;61.31;100861.22;4956637;28;45526;-71
2023/05/11 06:28:51;;;;;;;;;8.33;8.33;;;;;14.99;61.11;100862.94;4957701;28;45953;-72
2023/05/11 06:31:21;;;;;;;;;6.33;5.33;;;;;15.00;61.08;100862.00;4956528;28;45475;-72
2023/05/11 06:33:47;;;;;;;;;9.00;6.67;;;;;15.03;61.42;100867.13;4956498;28;45441;-62
2023/05/11 06:36:13;;;;;;;;;10.67;7.33;;;;;15.06;60.66;100868.78;4955338;28;45774;-61
2023/05/11 06:38:38;;;;;;;;;9.33;8.00;;;;;15.03;61.49;100869.78;4957561;28;46246;-60
2023/05/11 06:41:03;;;;;;;;;5.00;5.00;;;;;15.03;61.07;100868.94;4948704;28;45351;-61
2023/05/11 06:43:29;;;;;;;;;8.00;7.33;;;;;15.07;61.43;100867.88;4955989;28;45483;-62
2023/05/11 06:45:54;;;;;;;;;5.00;5.00;;;;;15.09;61.16;100871.28;4956977;28;45684;-62
2023/05/11 06:48:22;;;;;;;;;7.00;7.00;;;;;15.08;61.04;100874.88;4956361;28;45691;-61
2023/05/11 06:50:47;;;;;;;;;6.00;6.00;;;;;15.07;60.98;100869.63;4957449;28;45454;-61
2023/05/11 06:53:13;;;;;;;;;6.00;6.00;;;;;15.05;61.08;100869.72;4956855;28;45505;-62
2023/05/11 06:55:38;;;;;;;;;7.33;7.00;;;;;15.09;60.75;100875.72;4956249;28;45475;-61
2023/05/11 06:58:04;;;;;;;;;7.00;6.33;;;;;15.07;60.70;100872.28;4955741;28;46086;-61
2023/05/11 07:00:29;;;;;;;;;7.00;7.00;;;;;15.09;61.50;100873.91;4956291;28;45486;-62
2023/05/11 07:02:54;;;;;;;;;8.33;8.33;;;;;15.08;60.78;100877.50;4955981;28;45497;-62
2023/05/11 07:05:20;;;;;;;;;7.00;7.00;;;;;15.10;60.85;100878.31;4954893;28;45538;-62
2023/05/11 07:07:45;;;;;;;;;8.67;8.33;;;;;15.10;61.50;100872.13;4956435;28;45446;-61
2023/05/11 07:10:10;;;;;;;;;10.67;10.67;;;;;15.11;61.39;100882.66;4956566;28;45506;-61
2023/05/11 07:12:36;;;;;;;;;9.67;8.33;;;;;15.11;61.61;100873.84;4956209;28;45414;-62
2023/05/11 07:15:01;;;;;;;;;8.33;7.33;;;;;15.06;61.82;100868.78;4956202;28;45524;-63
2023/05/11 07:17:27;;;;;;;;;8.00;6.67;;;;;15.07;61.16;100873.16;4956313;28;45410;-63
2023/05/11 07:19:54;;;;;;;;;6.00;6.00;;;;;15.07;60.55;100878.47;4955527;28;45474;-64
2023/05/11 07:22:19;;;;;;;;;11.33;8.67;;;;;15.08;60.58;100874.88;4956082;28;45459;-63
2023/05/11 07:24:45;;;;;;;;;6.00;6.00;;;;;15.11;61.43;100873.84;4956386;28;45450;-60
2023/05/11 07:27:11;;;;;;;;;8.67;8.67;;;;;15.11;60.38;100865.91;4956275;28;45434;-63
2023/05/11 07:29:36;;;;;;;;;6.67;6.67;;;;;15.15;61.43;100871.00;4955971;28;45459;-61
2023/05/11 07:32:01;;;;;;;;;7.33;7.00;;;;;15.16;60.46;100871.84;4954969;28;45470;-60
2023/05/11 07:34:27;;;;;;;;;9.67;8.00;;;;;15.17;60.95;100874.41;4956330;28;45502;-60
2023/05/11 07:36:52;;;;;;;;;7.00;6.67;;;;;15.16;60.11;100875.34;4955628;28;45576;-61
2023/05/11 07:39:18;;;;;;;;;8.00;8.00;;;;;15.18;60.69;100876.13;4954892;28;45494;-61
2023/05/11 07:41:43;;;;;;;;;7.33;6.33;;;;;15.20;61.41;100873.38;4954853;28;45497;-59
2023/05/11 07:44:09;;;;;;;;;7.00;7.00;;;;;15.21;61.35;100878.63;4955421;28;55738;-58
2023/05/11 07:46:34;;;;;;;;;10.00;9.00;;;;;15.25;60.79;100876.66;4956192;28;45941;-60
2023/05/11 07:49:00;;;;;;;;;9.67;8.67;;;;;15.23;61.10;100879.41;4955920;28;49191;-59
2023/05/11 07:51:26;;;;;;;;;9.00;9.00;;;;;15.26;61.28;100875.75;4956910;28;45456;-65
2023/05/11 07:53:51;;;;;;;;;7.00;7.00;;;;;15.29;60.69;100880.03;4955088;28;45565;-63
2023/05/11 07:56:16;;;;;;;;;8.33;8.33;;;;;15.28;60.81;100880.94;4954985;28;45398;-64
2023/05/11 07:58:42;;;;;;;;;11.33;9.00;;;;;15.32;60.60;100872.78;4955964;28;45404;-61
2023/05/11 08:01:07;;;;;;;;;6.00;6.00;;;;;15.21;59.72;100859.22;4956492;28;45466;-59
2023/05/11 08:03:32;;;;;;;;;10.67;9.67;;;;;15.35;60.37;100872.63;4947040;28;45418;-64
2023/05/11 08:05:58;;;;;;;;;11.00;7.00;;;;;15.32;60.38;100866.63;4954690;28;45486;-57
2023/05/11 08:08:23;;;;;;;;;6.00;6.00;;;;;15.38;59.77;100874.25;4969758;28;45530;-67
2023/05/11 08:10:49;;;;;;;;;13.00;10.33;;;;;15.38;59.74;100866.31;4956067;28;45446;-63
2023/05/11 08:13:14;;;;;;;;;7.67;7.67;;;;;15.42;60.21;100866.06;4956040;28;45379;-65
2023/05/11 08:15:39;;;;;;;;;12.67;11.67;;;;;15.50;59.81;100876.28;4955649;28;45864;-66
2023/05/11 08:18:05;;;;;;;;;8.33;8.33;;;;;15.51;59.73;100878.00;4955125;28;45396;-61
2023/05/11 08:20:30;;;;;;;;;10.67;7.00;;;;;15.51;59.16;100871.84;4953366;28;45392;-58
2023/05/11 08:22:56;;;;;;;;;6.00;6.00;;;;;15.53;59.84;100869.94;4954460;28;45549;-66
2023/05/11 08:25:22;;;;;;;;;7.67;7.00;;;;;15.53;59.30;100876.13;4954606;28;46085;-60
2023/05/11 08:27:47;;;;;;;;;8.33;8.33;;;;;15.55;59.81;100870.72;4955960;28;45518;-60
2023/05/11 08:30:13;;;;;;;;;7.67;7.67;;;;;15.58;58.85;100868.81;4955110;28;45447;-60
2023/05/11 08:32:38;;;;;;;;;8.00;8.00;;;;;15.60;59.05;100872.22;4954968;28;45564;-60
2023/05/11 08:35:04;;;;;;;;;8.00;7.00;;;;;15.59;58.35;100877.59;4953647;28;45496;-60
2023/05/11 08:37:30;;;;;;;;;7.33;6.00;;;;;15.60;58.70;100879.31;4955455;28;45883;-62
2023/05/11 08:39:55;;;;;;;;;9.33;8.00;;;;;15.60;58.93;100866.06;4953770;28;45689;-61
2023/05/11 08:42:23;;;;;;;;;9.33;8.33;;;;;15.64;58.97;100868.47;4954398;28;45502;-62
2023/05/11 08:44:49;;;;;;;;;10.67;9.00;;;;;15.68;58.29;100871.81;4954312;28;46128;-62
2023/05/11 08:47:16;;;;;;;;;6.67;6.67;;;;;15.70;58.21;100869.97;4955383;28;45460;-62
2023/05/11 08:49:41;;;;;;;;;7.33;6.67;;;;;15.71;58.31;100865.53;4955858;28;45431;-62
2023/05/11 08:52:08;;;;;;;;;7.67;6.67;;;;;15.76;59.19;100866.16;4955725;28;45436;-64
2023/05/11 08:54:33;;;;;;;;;13.00;10.00;;;;;15.79;58.55;100872.13;4955699;28;46363;-61
2023/05/11 08:57:00;;;;;;;;;8.33;7.67;;;;;15.81;58.90;100867.59;4953772;28;45625;-65
2023/05/11 08:59:27;;;;;;;;;7.00;7.00;;;;;15.82;58.18;100865.81;4955775;28;45426;-65
2023/05/11 09:01:54;;;;;;;;;7.33;7.33;;;;;15.84;58.19;100871.91;4955130;28;45384;-61
2023/05/11 09:04:21;;;;;;;;;6.67;6.67;;;;;15.86;57.87;100870.03;4957800;28;45599;-63
2023/05/11 09:06:48;;;;;;;;;10.33;10.33;;;;;15.80;57.98;100859.75;4958642;28;45326;-63
2023/05/11 09:09:15;;;;;;;;;8.67;8.67;;;;;15.85;57.98;100863.00;4959126;28;45502;-64
2023/05/11 09:11:41;;;;;;;;;9.00;9.00;;;;;15.88;57.30;100866.34;4957210;28;45753;-61
2023/05/11 09:14:06;;;;;;;;;11.33;10.00;;;;;15.94;57.60;100866.97;4957750;28;45426;-57
2023/05/11 09:16:31;;;;;;;;;9.00;7.67;;;;;15.96;58.03;100862.41;4951532;28;52292;-65
2023/05/11 09:19:00;;;;;;;;;9.33;7.67;;;;;15.96;57.39;100859.75;4958992;28;46184;-64
2023/05/11 09:21:28;;;;;;;;;8.33;8.33;;;;;15.95;57.59;100858.91;4958265;28;45502;-64
2023/05/11 09:23:55;;;;;;;;;10.67;10.67;;;;;15.96;57.55;100867.72;4958097;28;46240;-63
2023/05/11 09:26:23;;;;;;;;;9.33;9.33;;;;;16.02;57.70;100876.22;4958179;28;45474;-63
2023/05/11 09:28:54;;;;;;;;;9.00;9.00;;;;;16.00;57.64;100870.13;4958901;28;45556;-64
2023/05/11 09:31:44;;;;;;;;;8.00;8.00;;;;;16.01;57.71;100861.25;4970335;28;45636;-64
2023/05/11 09:34:17;;;;;;;;;9.00;9.00;;;;;16.06;57.39;100875.09;4957711;28;46486;-65
2023/05/11 09:36:43;;;;;;;;;10.00;9.00;;;;;16.07;56.70;100868.88;4956420;28;45415;-58
2023/05/11 09:39:09;;;;;;;;;10.00;10.00;;;;;16.08;56.90;100862.63;4958724;28;45360;-64
2023/05/11 09:41:35;;;;;;;;;10.33;8.00;;;;;16.10;56.82;100870.50;4957600;28;45436;-64
2023/05/11 09:44:12;;;;;;;;;8.00;8.00;;;;;16.10;56.80;100870.50;4957842;28;46081;-64
2023/05/11 09:46:39;;;;;;;;;9.33;6.33;;;;;16.11;57.05;100867.75;4958200;28;45550;-64
2023/05/11 09:49:05;;;;;;;;;8.00;8.00;;;;;16.16;56.76;100867.53;4958195;28;45491;-65
2023/05/11 09:51:34;;;;;;;;;10.33;10.33;;;;;16.13;56.75;100863.22;4956918;28;45500;-64
2023/05/11 09:54:00;;;;;;;;;7.67;6.67;;;;;16.17;56.39;100858.59;4957311;28;46187;-64
2023/05/11 09:56:44;;;;;;;;;8.00;8.00;;;;;16.21;56.70;100851.34;4958092;28;45443;-64
2023/05/11 09:59:11;;;;;;;;;7.00;7.00;;;;;16.26;56.46;100854.63;4958283;28;45490;-64
2023/05/11 10:01:37;;;;;;;;;7.00;7.00;;;;;16.28;55.66;100858.03;4957963;28;45403;-64
2023/05/11 10:04:02;;;;;;;;;7.33;7.33;;;;;16.29;56.21;100849.13;4956506;28;46176;-63
2023/05/11 10:06:48;;;;;;;;;8.00;8.00;;;;;16.31;56.46;100847.25;4957848;28;45475;-63
2023/05/11 10:09:15;;;;;;;;;6.33;6.33;;;;;16.29;55.10;100844.69;4956582;28;45501;-67
2023/05/11 10:11:44;;;;;;;;;9.33;7.33;;;;;16.30;55.51;100842.88;4956167;28;45684;-64
2023/05/11 10:14:11;;;;;;;;;7.00;6.33;;;;;16.30;56.02;100835.75;4955836;28;45504;-67
2023/05/11 10:16:40;;;;;;;;;9.67;7.33;;;;;16.34;55.97;100836.47;4956586;28;45577;-65
2023/05/11 10:19:06;;;;;;;;;6.33;5.33;;;;;16.33;56.14;100840.03;4956613;28;45396;-65
2023/05/11 10:21:33;;;;;;;;;7.67;6.67;;;;;16.33;55.90;100842.69;4956105;28;45464;-67
2023/05/11 10:23:59;;;;;;;;;9.67;7.67;;;;;16.35;55.32;100844.31;4957747;28;46279;-63
2023/05/11 10:26:26;;;;;;;;;8.33;7.00;;;;;16.40;56.03;100837.91;4956757;28;45396;-66
2023/05/11 10:28:51;;;;;;;;;9.33;9.00;;;;;16.41;55.15;100832.50;4957640;28;45578;-66
2023/05/11 10:31:22;;;;;;;;;8.33;8.33;;;;;16.46;55.32;100834.91;4957337;28;45529;-64
2023/05/11 10:33:52;;;;;;;;;6.33;4.67;;;;;16.46;54.58;100835.75;4972206;28;46308;-65
2023/05/11 10:36:17;;;;;;;;;6.67;6.67;;;;;16.46;54.95;100837.56;4957284;28;45546;-63
2023/05/11 10:38:43;;;;;;;;;8.33;8.33;;;;;16.45;54.86;100839.38;4956069;28;45463;-64
2023/05/11 10:41:46;;;;;;;;;8.67;8.00;;;;;16.44;55.66;100837.66;4957288;28;45524;-65
2023/05/11 10:44:43;;;;;;;;;6.67;6.67;;;;;16.43;55.65;100840.41;4951475;28;46293;-66
2023/05/11 10:47:30;;;;;;;;;8.67;8.67;;;;;16.40;55.92;100836.13;4955922;28;45526;-64
2023/05/11 10:50:23;;;;;;;;;9.00;7.00;;;;;16.38;55.37;100838.00;4957463;28;45466;-63
2023/05/11 10:53:11;;;;;;;;;7.33;7.33;;;;;16.35;55.38;100835.50;4947565;28;45429;-64
2023/05/11 10:55:58;;;;;;;;;6.67;6.33;;;;;16.33;55.17;100832.97;4955256;28;45551;-64
2023/05/11 10:58:26;;;;;;;;;7.00;7.00;;;;;16.31;55.61;100841.94;4954891;28;45393;-67
2023/05/11 11:01:22;;;;;;;;;7.00;7.00;;;;;16.29;56.78;100838.53;4956610;28;45498;-58
2023/05/11 11:03:56;;;;;;;;;8.33;7.67;;;;;16.29;56.81;100830.56;4953175;28;45455;-54
2023/05/11 11:06:27;;;;;;;;;9.00;8.67;;;;;16.31;56.64;100836.66;4955720;28;45503;-57
2023/05/11 11:09:00;;;;;;;;;8.00;8.00;;;;;16.28;56.47;100831.47;4955357;28;45603;-55
2023/05/11 11:11:31;;;;;;;;;7.67;6.33;;;;;16.23;56.89;100829.09;4955417;28;45504;-59
2023/05/11 11:14:00;;;;;;;;;11.00;11.00;;;;;16.24;56.56;100833.47;4956861;28;45483;-59
2023/05/11 11:16:26;;;;;;;;;4.00;4.00;;;;;16.25;56.28;100829.00;4955782;28;47252;-56
2023/05/11 11:19:27;;;;;;;;;8.33;6.33;;;;;16.24;55.31;100829.94;4956653;28;45509;-55
2023/05/11 11:21:53;;;;;;;;;6.33;5.33;;;;;16.22;56.09;100826.50;4956856;28;45465;-56
2023/05/11 11:24:37;;;;;;;;;8.00;5.00;;;;;16.23;55.38;100826.44;4955894;28;45460;-57
2023/05/11 11:27:07;;;;;;;;;6.67;6.00;;;;;16.22;56.11;100827.38;4951865;28;46006;-56